createdAt,value
2022-09-23T00:02:15.738Z,10.20
2022-09-23T00:04:47.410Z,10.10
2022-09-23T00:07:18.627Z,10.10
2022-09-23T00:09:48.054Z,9.90
2022-09-23T00:12:17.598Z,9.80
2022-09-23T00:14:49.348Z,9.70
2022-09-23T00:17:19.257Z,9.70
2022-09-23T00:19:49.572Z,9.70
2022-09-23T00:22:19.119Z,9.60
2022-09-23T00:24:48.694Z,9.60
2022-09-23T00:27:18.163Z,9.60
2022-09-23T00:29:49.160Z,9.70
2022-09-23T00:32:18.701Z,9.70
2022-09-23T00:34:48.530Z,9.70
2022-09-23T00:37:18.483Z,9.70
2022-09-23T00:39:47.893Z,9.80
2022-09-23T00:42:18.489Z,9.70
2022-09-23T00:44:51.960Z,9.70
2022-09-23T00:47:22.873Z,9.70
2022-09-23T00:49:55.003Z,9.70
2022-09-23T00:52:26.850Z,9.70
2022-09-23T00:54:57.455Z,9.80
2022-09-23T00:57:27.976Z,9.80
2022-09-23T00:59:59.188Z,9.80
2022-09-23T01:02:28.945Z,9.80
2022-09-23T01:05:00.759Z,9.80
2022-09-23T01:07:32.166Z,9.80
2022-09-23T01:10:02.434Z,9.70
2022-09-23T01:12:40.595Z,9.70
2022-09-23T01:15:15.475Z,9.70
2022-09-23T01:17:52.065Z,9.70
2022-09-23T01:20:31.051Z,9.60
2022-09-23T01:23:10.859Z,9.50
2022-09-23T01:25:53.003Z,9.50
2022-09-23T01:28:35.465Z,9.50
2022-09-23T01:31:07.661Z,9.50
2022-09-23T01:33:42.577Z,9.40
2022-09-23T01:36:19.654Z,9.50
2022-09-23T01:38:53.502Z,9.40
2022-09-23T01:41:30.517Z,9.40
2022-09-23T01:44:02.475Z,9.40
2022-09-23T01:46:35.566Z,9.40
2022-09-23T01:49:09.285Z,9.40
2022-09-23T01:51:41.655Z,9.40
2022-09-23T01:54:13.836Z,9.30
2022-09-23T01:56:46.820Z,9.30
2022-09-23T01:59:17.699Z,9.30
2022-09-23T02:01:52.337Z,9.20
2022-09-23T02:04:24.456Z,9.20
2022-09-23T02:06:58.663Z,9.20
2022-09-23T02:09:30.554Z,9.20
2022-09-23T02:12:05.363Z,9.20
2022-09-23T02:14:37.684Z,9.20
2022-09-23T02:17:13.632Z,9.20
2022-09-23T02:19:44.802Z,9.20
2022-09-23T02:22:16.293Z,9.20
2022-09-23T02:24:45.786Z,9.10
2022-09-23T02:27:19.015Z,9.10
2022-09-23T02:29:53.604Z,9.10
2022-09-23T02:32:25.782Z,9.10
2022-09-23T02:34:59.445Z,9.10
2022-09-23T02:37:33.440Z,9.10
2022-09-23T02:40:05.678Z,9.10
2022-09-23T02:42:40.213Z,9.10
2022-09-23T02:45:11.143Z,9.00
2022-09-23T02:47:45.001Z,9.10
2022-09-23T02:50:14.699Z,9.10
2022-09-23T02:52:45.317Z,9.10
2022-09-23T02:55:17.774Z,9.00
2022-09-23T02:57:50.313Z,9.00
2022-09-23T03:00:19.921Z,9.00
2022-09-23T03:03:00.819Z,9.00
2022-09-23T03:05:32.333Z,9.00
2022-09-23T03:08:13.309Z,9.00
2022-09-23T03:10:49.430Z,9.00
2022-09-23T03:13:21.145Z,9.00
2022-09-23T03:15:56.336Z,9.00
2022-09-23T03:18:32.469Z,8.90
2022-09-23T03:21:05.857Z,8.90
2022-09-23T03:23:36.679Z,8.90
2022-09-23T03:26:08.357Z,8.90
2022-09-23T03:28:41.295Z,8.90
2022-09-23T03:31:10.850Z,8.90
2022-09-23T03:33:44.328Z,8.90
2022-09-23T03:36:31.519Z,8.90
2022-09-23T03:39:04.908Z,8.90
2022-09-23T03:41:37.060Z,8.90
2022-09-23T03:44:09.078Z,8.80
2022-09-23T03:46:38.910Z,8.80
2022-09-23T03:49:14.991Z,8.80
2022-09-23T03:51:44.876Z,8.80
2022-09-23T03:54:14.416Z,8.80
2022-09-23T03:56:44.862Z,8.80
2022-09-23T03:59:15.524Z,8.80
2022-09-23T04:01:46.644Z,8.70
2022-09-23T04:04:17.878Z,8.70
2022-09-23T04:06:47.366Z,8.70
2022-09-23T04:09:17.123Z,8.70
2022-09-23T04:11:46.609Z,8.70
2022-09-23T04:14:16.731Z,8.70
2022-09-23T04:16:46.374Z,8.70
2022-09-23T04:19:17.522Z,8.70
2022-09-23T04:21:47.263Z,8.70
2022-09-23T04:24:16.975Z,8.70
2022-09-23T04:26:46.476Z,8.70
2022-09-23T04:29:16.109Z,8.70
2022-09-23T04:31:45.639Z,8.80
2022-09-23T04:34:16.538Z,8.80
2022-09-23T04:36:50.820Z,8.80
2022-09-23T04:39:20.858Z,8.70
2022-09-23T04:41:50.360Z,8.70
2022-09-23T04:44:21.950Z,8.70
2022-09-23T04:46:52.322Z,8.70
2022-09-23T04:49:21.877Z,8.60
2022-09-23T04:51:52.926Z,8.60
2022-09-23T04:54:22.376Z,8.60
2022-09-23T04:56:52.075Z,8.60
2022-09-23T04:59:21.701Z,8.60
2022-09-23T05:01:52.700Z,8.60
2022-09-23T05:04:22.166Z,8.60
2022-09-23T05:06:53.295Z,8.60
2022-09-23T05:09:22.798Z,8.50
2022-09-23T05:11:52.212Z,8.50
2022-09-23T05:14:22.176Z,8.40
2022-09-23T05:16:51.637Z,8.40
2022-09-23T05:19:21.059Z,8.40
2022-09-23T05:21:50.688Z,8.30
2022-09-23T05:24:22.542Z,8.20
2022-09-23T05:26:52.368Z,8.10
2022-09-23T05:29:21.836Z,8.00
2022-09-23T05:31:51.421Z,8.00
2022-09-23T05:34:20.901Z,7.90
2022-09-23T05:36:50.498Z,7.90
2022-09-23T05:39:21.803Z,7.80
2022-09-23T05:41:51.274Z,7.80
2022-09-23T05:44:21.108Z,7.80
2022-09-23T05:46:50.677Z,7.80
2022-09-23T05:49:20.217Z,7.80
2022-09-23T05:51:49.812Z,7.80
2022-09-23T05:54:19.296Z,7.80
2022-09-23T05:56:50.487Z,7.70
2022-09-23T05:59:20.284Z,7.70
2022-09-23T06:01:52.134Z,7.60
2022-09-23T06:04:25.152Z,7.40
2022-09-23T06:06:54.905Z,7.30
2022-09-23T06:09:24.350Z,7.20
2022-09-23T06:11:55.632Z,7.10
2022-09-23T06:14:25.336Z,6.90
2022-09-23T06:16:54.772Z,6.80
2022-09-23T06:19:24.193Z,6.70
2022-09-23T06:21:53.608Z,6.60
2022-09-23T06:24:27.207Z,6.50
2022-09-23T06:27:02.289Z,6.50
2022-09-23T06:29:33.859Z,6.40
2022-09-23T06:32:03.716Z,6.40
2022-09-23T06:34:42.718Z,6.30
2022-09-23T06:37:20.306Z,6.30
2022-09-23T06:39:50.183Z,6.30
2022-09-23T06:42:21.229Z,6.20
2022-09-23T06:44:51.219Z,6.10
2022-09-23T06:47:20.631Z,6.00
2022-09-23T06:49:50.123Z,5.90
2022-09-23T06:52:21.736Z,5.80
2022-09-23T06:54:51.380Z,5.90
2022-09-23T06:57:22.377Z,5.80
2022-09-23T06:59:51.903Z,5.80
2022-09-23T07:02:21.498Z,5.70
2022-09-23T07:04:51.917Z,5.60
2022-09-23T07:07:21.525Z,5.50
2022-09-23T07:09:51.018Z,5.40
2022-09-23T07:12:22.107Z,5.30
2022-09-23T07:14:51.536Z,5.10
2022-09-23T07:17:21.370Z,5.00
2022-09-23T07:19:50.877Z,4.90
2022-09-23T07:22:20.662Z,4.80
2022-09-23T07:24:50.320Z,4.70
2022-09-23T07:27:20.612Z,4.60
2022-09-23T07:29:51.814Z,4.60
2022-09-23T07:32:22.571Z,4.60
2022-09-23T07:34:52.230Z,4.60
2022-09-23T07:37:21.649Z,4.80
2022-09-23T07:39:52.124Z,5.10
2022-09-23T07:42:21.630Z,5.30
2022-09-23T07:44:53.293Z,5.40
2022-09-23T07:47:22.774Z,5.50
2022-09-23T07:49:52.429Z,5.50
2022-09-23T07:52:21.875Z,5.50
2022-09-23T07:54:52.259Z,5.50
2022-09-23T07:57:21.852Z,5.50
2022-09-23T07:59:52.907Z,5.60
2022-09-23T08:02:22.361Z,5.60
2022-09-23T08:04:52.225Z,5.60
2022-09-23T08:07:21.738Z,5.50
2022-09-23T08:09:51.188Z,5.40
2022-09-23T08:12:20.802Z,5.40
2022-09-23T08:14:50.326Z,5.40
2022-09-23T08:17:21.402Z,5.50
2022-09-23T08:19:50.869Z,5.50
2022-09-23T08:22:20.452Z,5.50
2022-09-23T08:24:50.415Z,5.50
2022-09-23T08:27:20.876Z,5.50
2022-09-23T08:29:50.339Z,5.50
2022-09-23T08:32:21.512Z,5.40
2022-09-23T08:34:51.123Z,5.30
2022-09-23T08:37:20.880Z,5.20
2022-09-23T08:39:50.326Z,5.10
2022-09-23T08:42:21.757Z,5.00
2022-09-23T08:44:53.532Z,4.90
2022-09-23T08:47:28.020Z,4.80
2022-09-23T08:50:01.319Z,4.70
2022-09-23T08:52:35.138Z,4.60
2022-09-23T08:55:05.715Z,4.60
2022-09-23T08:57:40.907Z,4.60
2022-09-23T09:00:16.752Z,4.70
2022-09-23T09:02:47.884Z,4.70
2022-09-23T09:05:19.353Z,4.70
2022-09-23T09:07:48.776Z,4.80
2022-09-23T09:10:20.931Z,4.80
2022-09-23T09:12:51.493Z,4.70
2022-09-23T09:15:24.795Z,4.70
2022-09-23T09:18:02.268Z,4.60
2022-09-23T09:20:35.977Z,4.50
2022-09-23T09:23:08.395Z,4.40
2022-09-23T09:25:45.425Z,4.40
2022-09-23T09:28:21.083Z,4.30
2022-09-23T09:30:54.787Z,4.30
2022-09-23T09:33:26.650Z,4.30
2022-09-23T09:36:10.651Z,4.30
2022-09-23T09:38:40.125Z,4.30
2022-09-23T09:41:14.582Z,4.20
2022-09-23T09:43:46.151Z,4.20
2022-09-23T09:46:23.419Z,4.00
2022-09-23T09:48:56.950Z,4.00
2022-09-23T09:51:28.523Z,3.90
2022-09-23T09:54:02.064Z,3.70
2022-09-23T09:56:33.554Z,3.60
2022-09-23T09:59:11.512Z,3.50
2022-09-23T10:01:42.059Z,3.50
2022-09-23T10:04:26.196Z,3.50
2022-09-23T10:07:10.488Z,3.60
2022-09-23T10:09:43.780Z,3.60
2022-09-23T10:12:16.564Z,3.70
2022-09-23T10:14:47.523Z,3.80
2022-09-23T10:17:21.788Z,3.80
2022-09-23T10:20:01.483Z,4.00
2022-09-23T10:22:35.806Z,4.10
2022-09-23T10:25:10.504Z,4.20
2022-09-23T10:27:40.554Z,4.30
2022-09-23T10:30:23.690Z,4.30
2022-09-23T10:32:55.697Z,4.30
2022-09-23T10:35:28.842Z,4.40
2022-09-23T10:38:00.529Z,4.40
2022-09-23T10:40:51.220Z,4.40
2022-09-23T10:43:47.319Z,4.40
2022-09-23T10:46:41.812Z,4.40
2022-09-23T10:49:52.574Z,4.40
2022-09-23T10:52:36.941Z,4.40
2022-09-23T10:55:29.656Z,4.40
2022-09-23T10:58:15.843Z,4.40
2022-09-23T11:00:52.475Z,4.40
2022-09-23T11:03:44.061Z,4.40
2022-09-23T11:06:21.182Z,4.40
2022-09-23T11:09:07.631Z,4.40
2022-09-23T11:11:50.011Z,4.40
2022-09-23T11:14:41.337Z,4.40
2022-09-23T11:17:30.046Z,4.30
2022-09-23T11:20:41.340Z,4.20
2022-09-23T11:23:34.593Z,4.30
2022-09-23T11:26:17.052Z,4.30
2022-09-23T11:29:15.597Z,4.30
2022-09-23T11:31:58.772Z,4.40
2022-09-23T11:34:58.528Z,4.40
2022-09-23T11:37:32.770Z,4.50
2022-09-23T11:40:07.224Z,4.60
2022-09-23T11:42:46.646Z,4.60
2022-09-23T11:45:21.080Z,4.70
2022-09-23T11:47:54.734Z,4.70
2022-09-23T11:50:30.843Z,4.70
2022-09-23T11:53:06.701Z,4.70
2022-09-23T11:55:52.826Z,4.80
2022-09-23T11:58:31.028Z,4.90
2022-09-23T12:01:07.768Z,5.10
2022-09-23T12:03:50.304Z,5.20
2022-09-23T12:06:24.142Z,5.30
2022-09-23T12:08:58.877Z,5.40
2022-09-23T12:11:36.401Z,5.40
2022-09-23T12:14:16.400Z,5.50
2022-09-23T12:17:17.354Z,5.60
2022-09-23T12:20:05.663Z,5.70
2022-09-23T12:22:49.861Z,5.70
2022-09-23T12:25:47.157Z,5.80
2022-09-23T12:28:23.166Z,5.90
2022-09-23T12:30:59.548Z,6.00
2022-09-23T12:33:33.018Z,6.20
2022-09-23T12:36:08.299Z,6.40
2022-09-23T12:38:41.032Z,6.70
2022-09-23T12:41:26.721Z,6.90
2022-09-23T12:43:59.600Z,7.00
2022-09-23T12:46:33.595Z,7.00
2022-09-23T12:49:08.916Z,7.00
2022-09-23T12:51:40.000Z,7.10
2022-09-23T12:54:26.065Z,7.00
2022-09-23T12:57:07.015Z,7.20
2022-09-23T12:59:56.717Z,7.30
2022-09-23T13:02:35.895Z,7.40
2022-09-23T13:05:40.732Z,7.50
2022-09-23T13:08:14.692Z,7.40
2022-09-23T13:10:48.877Z,7.50
2022-09-23T13:13:26.462Z,7.70
2022-09-23T13:15:57.122Z,7.70
2022-09-23T13:18:54.901Z,7.70
2022-09-23T13:22:03.724Z,7.70
2022-09-23T13:24:54.730Z,7.60
2022-09-23T13:27:29.239Z,7.60
2022-09-23T13:30:04.210Z,7.50
2022-09-23T13:32:38.097Z,7.50
2022-09-23T13:35:21.009Z,7.50
2022-09-23T13:37:51.986Z,7.50
2022-09-23T13:40:26.226Z,7.40
2022-09-23T13:43:00.717Z,7.30
2022-09-23T13:45:33.737Z,7.20
2022-09-23T13:48:08.070Z,7.30
2022-09-23T13:50:42.204Z,7.70
2022-09-23T13:53:15.254Z,8.10
2022-09-23T13:55:50.218Z,8.20
2022-09-23T13:58:24.677Z,8.40
2022-09-23T14:00:54.816Z,8.50
2022-09-23T14:03:35.902Z,8.50
2022-09-23T14:06:13.592Z,8.50
2022-09-23T14:08:47.065Z,8.40
2022-09-23T14:11:19.533Z,8.40
2022-09-23T14:13:55.675Z,8.50
2022-09-23T14:16:28.779Z,8.40
2022-09-23T14:19:01.548Z,8.40
2022-09-23T14:21:36.105Z,8.40
2022-09-23T14:24:24.341Z,8.40
2022-09-23T14:26:58.357Z,8.20
2022-09-23T14:29:31.938Z,8.10
2022-09-23T14:32:04.786Z,8.00
2022-09-23T14:34:48.959Z,8.00
2022-09-23T14:37:52.283Z,8.10
2022-09-23T14:40:24.418Z,8.20
2022-09-23T14:42:59.530Z,8.30
2022-09-23T14:45:33.265Z,8.20
2022-09-23T14:48:09.519Z,8.30
2022-09-23T14:50:41.451Z,8.30
2022-09-23T14:53:36.060Z,8.50
2022-09-23T14:56:16.403Z,8.60
2022-09-23T14:58:52.709Z,8.70
2022-09-23T15:01:40.733Z,8.60
2022-09-23T15:04:16.867Z,8.70
2022-09-23T15:06:52.125Z,8.70
2022-09-23T15:09:29.685Z,8.70
2022-09-23T15:12:01.732Z,8.90
2022-09-23T15:14:38.767Z,8.90
2022-09-23T15:17:20.386Z,8.90
2022-09-23T15:19:57.195Z,9.10
2022-09-23T15:22:27.948Z,9.20
2022-09-23T15:25:13.862Z,9.30
2022-09-23T15:27:43.930Z,9.30
2022-09-23T15:30:17.663Z,9.20
2022-09-23T15:32:48.490Z,9.20
2022-09-23T15:35:20.107Z,9.20
2022-09-23T15:37:52.265Z,9.20
2022-09-23T15:40:26.293Z,9.30
2022-09-23T15:42:59.313Z,9.60
2022-09-23T15:45:35.284Z,9.80
2022-09-23T15:48:12.627Z,9.90
2022-09-23T15:50:43.433Z,9.90
2022-09-23T15:53:20.612Z,10.00
2022-09-23T15:55:52.697Z,10.00
2022-09-23T15:58:24.237Z,10.10
2022-09-23T16:00:57.040Z,10.30
2022-09-23T16:03:29.116Z,10.40
2022-09-23T16:06:01.703Z,10.60
2022-09-23T16:08:33.516Z,10.70
2022-09-23T16:11:06.771Z,10.70
2022-09-23T16:13:36.802Z,10.80
2022-09-23T16:16:08.506Z,10.70
2022-09-23T16:18:38.865Z,11.10
2022-09-23T16:21:10.037Z,11.30
2022-09-23T16:23:44.209Z,11.60
2022-09-23T16:26:21.255Z,11.90
2022-09-23T16:28:52.676Z,12.00
2022-09-23T16:31:24.848Z,12.20
2022-09-23T16:33:55.940Z,12.30
2022-09-23T16:36:27.563Z,12.60
2022-09-23T16:38:58.354Z,12.70
2022-09-23T16:41:32.056Z,13.00
2022-09-23T16:44:03.191Z,12.80
2022-09-23T16:46:33.768Z,12.90
2022-09-23T16:49:04.523Z,13.20
2022-09-23T16:51:38.844Z,13.30
2022-09-23T16:54:11.463Z,13.30
2022-09-23T16:56:45.705Z,13.60
2022-09-23T16:59:16.634Z,13.40
2022-09-23T17:02:03.708Z,13.50
2022-09-23T17:04:34.033Z,13.50
2022-09-23T17:07:04.680Z,13.60
2022-09-23T17:09:34.971Z,13.70
2022-09-23T17:12:16.889Z,13.80
2022-09-23T17:14:47.004Z,14.10
2022-09-23T17:17:16.982Z,14.20
2022-09-23T17:19:47.078Z,14.20
2022-09-23T17:22:20.731Z,14.20
2022-09-23T17:24:51.029Z,14.20
2022-09-23T17:27:23.282Z,14.10
2022-09-23T17:29:53.399Z,14.10
2022-09-23T17:32:23.432Z,14.00
2022-09-23T17:34:53.509Z,14.00
2022-09-23T17:37:23.528Z,14.10
2022-09-23T17:39:53.640Z,14.00
2022-09-23T17:42:25.434Z,14.20
2022-09-23T17:44:58.841Z,14.10
2022-09-23T17:47:29.215Z,14.30
2022-09-23T17:49:59.451Z,14.30
2022-09-23T17:52:29.420Z,14.40
2022-09-23T17:54:59.456Z,14.40
2022-09-23T17:57:31.173Z,14.30
2022-09-23T18:00:01.211Z,14.40
2022-09-23T18:02:31.250Z,14.50
2022-09-23T18:05:01.399Z,14.60
2022-09-23T18:07:31.040Z,15.00
2022-09-23T18:10:00.446Z,15.20
2022-09-23T18:12:31.760Z,15.00
2022-09-23T18:15:01.174Z,15.30
2022-09-23T18:17:30.570Z,15.40
2022-09-23T18:20:00.034Z,15.70
2022-09-23T18:22:29.478Z,15.50
2022-09-23T18:24:59.519Z,15.20
2022-09-23T18:27:29.052Z,14.90
2022-09-23T18:30:00.302Z,14.50
2022-09-23T18:32:29.781Z,13.80
2022-09-23T18:34:59.209Z,14.30
2022-09-23T18:37:28.614Z,14.70
2022-09-23T18:39:58.379Z,15.00
2022-09-23T18:42:28.108Z,15.40
2022-09-23T18:44:59.143Z,15.90
2022-09-23T18:47:47.132Z,15.90
2022-09-23T18:50:33.451Z,15.60
2022-09-23T18:53:03.052Z,15.00
2022-09-23T18:55:35.280Z,15.30
2022-09-23T18:58:07.943Z,15.30
2022-09-23T19:00:37.898Z,15.10
2022-09-23T19:03:08.996Z,14.70
2022-09-23T19:05:38.433Z,14.70
2022-09-23T19:08:07.848Z,15.00
2022-09-23T19:10:37.302Z,14.90
2022-09-23T19:13:06.738Z,15.10
2022-09-23T19:15:36.140Z,15.60
2022-09-23T19:18:05.608Z,15.80
2022-09-23T19:20:36.631Z,16.10
2022-09-23T19:23:06.046Z,16.40
2022-09-23T19:25:38.146Z,16.60
2022-09-23T19:28:08.977Z,16.20
2022-09-23T19:30:39.502Z,15.90
2022-09-23T19:33:10.560Z,15.50
2022-09-23T19:35:49.703Z,15.60
2022-09-23T19:38:20.735Z,15.60
2022-09-23T19:40:52.828Z,15.50
2022-09-23T19:43:22.386Z,15.80
2022-09-23T19:45:55.703Z,15.80
2022-09-23T19:48:25.133Z,15.80
2022-09-23T19:50:59.004Z,15.50
2022-09-23T19:53:28.436Z,15.10
2022-09-23T19:55:57.867Z,15.10
2022-09-23T19:58:27.733Z,14.90
2022-09-23T20:00:57.930Z,15.00
2022-09-23T20:03:27.929Z,15.20
2022-09-23T20:06:00.210Z,15.10
2022-09-23T20:08:29.636Z,15.30
2022-09-23T20:10:59.210Z,15.40
2022-09-23T20:13:29.418Z,15.40
2022-09-23T20:15:59.925Z,15.40
2022-09-23T20:18:29.470Z,15.40
2022-09-23T20:21:00.574Z,15.30
2022-09-23T20:23:30.437Z,15.20
2022-09-23T20:26:16.967Z,15.30
2022-09-23T20:28:46.853Z,15.20
2022-09-23T20:31:16.677Z,15.10
2022-09-23T20:33:46.798Z,15.00
2022-09-23T20:36:17.844Z,15.10
2022-09-23T20:38:47.284Z,15.40
2022-09-23T20:41:17.877Z,15.70
2022-09-23T20:43:48.857Z,15.90
2022-09-23T20:46:18.555Z,15.80
2022-09-23T20:48:48.649Z,15.90
2022-09-23T20:51:20.053Z,15.90
2022-09-23T20:53:52.988Z,16.00
2022-09-23T20:56:23.122Z,15.90
2022-09-23T20:58:54.917Z,15.50
2022-09-23T21:01:24.368Z,15.40
2022-09-23T21:03:54.503Z,15.40
2022-09-23T21:06:26.759Z,15.40
2022-09-23T21:08:56.787Z,15.60
2022-09-23T21:11:26.997Z,15.40
2022-09-23T21:13:56.791Z,15.20
2022-09-23T21:16:26.622Z,15.00
2022-09-23T21:18:56.099Z,15.00
2022-09-23T21:21:27.148Z,15.00
2022-09-23T21:24:11.651Z,15.00
2022-09-23T21:26:48.177Z,14.90
2022-09-23T21:29:18.140Z,14.50
2022-09-23T21:31:50.173Z,14.40
2022-09-23T21:34:20.403Z,14.30
2022-09-23T21:36:52.008Z,14.10
2022-09-23T21:39:21.954Z,13.80
2022-09-23T21:41:52.096Z,13.50
2022-09-23T21:44:22.174Z,13.20
2022-09-23T21:46:52.556Z,12.90
2022-09-23T21:49:22.749Z,12.50
2022-09-23T21:52:00.161Z,12.20
2022-09-23T21:54:30.236Z,12.00
2022-09-23T21:57:01.066Z,11.80
2022-09-23T21:59:31.373Z,11.70
2022-09-23T22:02:01.804Z,11.50
2022-09-23T22:04:32.865Z,11.40
2022-09-23T22:07:04.744Z,11.30
2022-09-23T22:09:34.910Z,11.20
2022-09-23T22:12:10.156Z,11.10
2022-09-23T22:14:40.526Z,11.00
2022-09-23T22:17:15.178Z,10.90
2022-09-23T22:19:47.426Z,10.90
2022-09-23T22:22:20.188Z,10.80
2022-09-23T22:24:50.254Z,10.70
2022-09-23T22:27:20.945Z,10.60
2022-09-23T22:30:07.037Z,10.30
2022-09-23T22:32:55.046Z,10.10
2022-09-23T22:35:24.783Z,10.00
2022-09-23T22:37:56.905Z,9.90
2022-09-23T22:40:30.057Z,9.70
2022-09-23T22:42:59.875Z,9.50
2022-09-23T22:45:29.537Z,9.30
2022-09-23T22:47:59.119Z,9.10
2022-09-23T22:50:28.915Z,9.00
2022-09-23T22:53:00.355Z,8.70
2022-09-23T22:55:29.782Z,8.60
2022-09-23T22:58:15.316Z,8.30
2022-09-23T23:00:49.893Z,8.20
2022-09-23T23:03:21.062Z,8.00
2022-09-23T23:05:50.886Z,7.90
2022-09-23T23:08:22.614Z,7.80
2022-09-23T23:10:53.153Z,7.70
2022-09-23T23:13:22.607Z,7.50
2022-09-23T23:15:52.540Z,7.40
2022-09-23T23:18:22.716Z,7.20
2022-09-23T23:20:52.153Z,7.00
2022-09-23T23:23:23.151Z,6.90
2022-09-23T23:25:52.821Z,6.80
2022-09-23T23:28:22.879Z,6.70
2022-09-23T23:30:52.580Z,6.60
2022-09-23T23:33:22.033Z,6.60
2022-09-23T23:35:53.483Z,6.60
2022-09-23T23:38:25.484Z,6.70
2022-09-23T23:40:59.011Z,6.60
2022-09-23T23:43:29.629Z,6.40
2022-09-23T23:46:25.176Z,6.30
2022-09-23T23:48:56.210Z,6.10
2022-09-23T23:51:28.008Z,6.10
2022-09-23T23:54:01.569Z,6.00
2022-09-23T23:56:34.680Z,6.00
2022-09-23T23:59:05.301Z,6.00
